Branch, Minnesota
Current Conditions -  °F | °C
As of 3:15 AM on Monday 20 Oct 2014 (Local Time) from KROS Reporting Station
Scattered Clouds Scattered Clouds  
Wind Chill: 44°   Ceiling: Unl
Heat Index: 44°   Visibility: 10mi
Dew Point: 40°   Wind: 3mph
Humidity: 87%   Direction: 280°W
Pressure: 29.89"   Gusts: NA
Location:  45.5343°N, 92.8964°W
Report Text: KROS 200815Z AUTO 28003KT 10SM SCT110 07/04 A2989 RMK AO2 T00650044
Loading
Personal Weather Stations






























Interactive Weather Map
Tropical Storm Tracking
New forecast layout! Learn more

10-Day Weather Forecast

Advertisements
Track Severe Weather on mobile